sensor_id;sensor_type;location;lat;lon;timestamp;temperature;humidity
35463;DHT22;21578;47.892;9.970;2023-04-24T00:04:03;9.50;96.60
35463;DHT22;21578;47.892;9.970;2023-04-24T00:08:51;9.50;96.60
35463;DHT22;21578;47.892;9.970;2023-04-24T00:13:38;9.50;96.60
35463;DHT22;21578;47.892;9.970;2023-04-24T00:18:25;9.50;96.60
35463;DHT22;21578;47.892;9.970;2023-04-24T00:23:12;9.50;96.60
35463;DHT22;21578;47.892;9.970;2023-04-24T00:28:02;9.50;96.60
35463;DHT22;21578;47.892;9.970;2023-04-24T00:32:49;9.50;96.60
35463;DHT22;21578;47.892;9.970;2023-04-24T00:37:36;9.60;96.60
35463;DHT22;21578;47.892;9.970;2023-04-24T00:42:23;9.60;96.60
35463;DHT22;21578;47.892;9.970;2023-04-24T00:47:12;9.50;96.60
35463;DHT22;21578;47.892;9.970;2023-04-24T00:51:59;9.40;96.60
35463;DHT22;21578;47.892;9.970;2023-04-24T00:56:46;9.40;96.60
35463;DHT22;21578;47.892;9.970;2023-04-24T01:01:33;9.40;96.60
35463;DHT22;21578;47.892;9.970;2023-04-24T01:06:23;9.50;96.60
35463;DHT22;21578;47.892;9.970;2023-04-24T01:11:14;9.40;96.60
35463;DHT22;21578;47.892;9.970;2023-04-24T01:16:01;9.50;96.60
35463;DHT22;21578;47.892;9.970;2023-04-24T01:20:51;9.40;96.60
35463;DHT22;21578;47.892;9.970;2023-04-24T01:25:41;9.50;96.60
35463;DHT22;21578;47.892;9.970;2023-04-24T01:30:28;9.40;96.60
35463;DHT22;21578;47.892;9.970;2023-04-24T01:35:15;9.40;96.60
35463;DHT22;21578;47.892;9.970;2023-04-24T01:40:02;9.30;96.60
35463;DHT22;21578;47.892;9.970;2023-04-24T01:44:52;9.30;96.60
35463;DHT22;21578;47.892;9.970;2023-04-24T01:49:39;9.30;96.60
35463;DHT22;21578;47.892;9.970;2023-04-24T01:54:26;9.30;96.60
35463;DHT22;21578;47.892;9.970;2023-04-24T01:59:13;9.40;96.60
35463;DHT22;21578;47.892;9.970;2023-04-24T02:04:01;9.30;96.60
35463;DHT22;21578;47.892;9.970;2023-04-24T02:08:48;9.20;96.60
35463;DHT22;21578;47.892;9.970;2023-04-24T02:13:35;9.20;96.60
35463;DHT22;21578;47.892;9.970;2023-04-24T02:18:22;9.20;96.60
35463;DHT22;21578;47.892;9.970;2023-04-24T02:23:10;9.10;96.60
35463;DHT22;21578;47.892;9.970;2023-04-24T02:27:58;9.10;96.60
35463;DHT22;21578;47.892;9.970;2023-04-24T02:32:45;9.10;96.60
35463;DHT22;21578;47.892;9.970;2023-04-24T02:37:32;9.10;96.60
35463;DHT22;21578;47.892;9.970;2023-04-24T02:42:20;9.10;96.60
35463;DHT22;21578;47.892;9.970;2023-04-24T02:47:07;9.10;96.60
35463;DHT22;21578;47.892;9.970;2023-04-24T02:51:54;9.10;96.60
35463;DHT22;21578;47.892;9.970;2023-04-24T02:56:41;9.10;96.60
35463;DHT22;21578;47.892;9.970;2023-04-24T03:01:29;9.00;96.60
35463;DHT22;21578;47.892;9.970;2023-04-24T03:06:16;9.10;96.60
35463;DHT22;21578;47.892;9.970;2023-04-24T03:11:03;9.10;96.60
35463;DHT22;21578;47.892;9.970;2023-04-24T03:15:50;9.00;96.60
35463;DHT22;21578;47.892;9.970;2023-04-24T03:20:39;8.90;96.60
35463;DHT22;21578;47.892;9.970;2023-04-24T03:25:26;9.00;96.60
35463;DHT22;21578;47.892;9.970;2023-04-24T03:30:13;9.00;96.60
35463;DHT22;21578;47.892;9.970;2023-04-24T03:35:00;9.00;96.60
35463;DHT22;21578;47.892;9.970;2023-04-24T03:39:49;9.00;96.60
35463;DHT22;21578;47.892;9.970;2023-04-24T03:44:37;9.00;96.60
35463;DHT22;21578;47.892;9.970;2023-04-24T03:49:23;9.00;96.60
35463;DHT22;21578;47.892;9.970;2023-04-24T03:54:11;8.90;96.60
35463;DHT22;21578;47.892;9.970;2023-04-24T03:58:59;8.90;96.60
35463;DHT22;21578;47.892;9.970;2023-04-24T04:03:46;8.80;96.60
35463;DHT22;21578;47.892;9.970;2023-04-24T04:08:33;8.90;96.60
35463;DHT22;21578;47.892;9.970;2023-04-24T04:13:20;8.90;96.60
35463;DHT22;21578;47.892;9.970;2023-04-24T04:18:08;8.90;96.60
35463;DHT22;21578;47.892;9.970;2023-04-24T04:22:55;8.90;96.60
35463;DHT22;21578;47.892;9.970;2023-04-24T04:27:42;8.90;96.60
35463;DHT22;21578;47.892;9.970;2023-04-24T04:32:29;8.70;96.60
35463;DHT22;21578;47.892;9.970;2023-04-24T04:37:17;8.70;96.60
35463;DHT22;21578;47.892;9.970;2023-04-24T04:42:04;8.60;96.60
35463;DHT22;21578;47.892;9.970;2023-04-24T04:46:52;8.60;96.60
35463;DHT22;21578;47.892;9.970;2023-04-24T04:51:41;8.60;96.60
35463;DHT22;21578;47.892;9.970;2023-04-24T04:56:30;8.60;96.60
35463;DHT22;21578;47.892;9.970;2023-04-24T05:01:16;8.70;96.60
35463;DHT22;21578;47.892;9.970;2023-04-24T05:06:04;8.60;96.60
35463;DHT22;21578;47.892;9.970;2023-04-24T05:10:51;8.70;96.60
35463;DHT22;21578;47.892;9.970;2023-04-24T05:15:39;8.70;96.60
35463;DHT22;21578;47.892;9.970;2023-04-24T05:20:26;8.60;96.60
35463;DHT22;21578;47.892;9.970;2023-04-24T05:25:13;8.70;96.60
35463;DHT22;21578;47.892;9.970;2023-04-24T05:30:00;8.70;96.60
35463;DHT22;21578;47.892;9.970;2023-04-24T05:34:48;8.60;96.60
35463;DHT22;21578;47.892;9.970;2023-04-24T05:39:36;8.60;96.60
35463;DHT22;21578;47.892;9.970;2023-04-24T05:44:23;8.70;96.60
35463;DHT22;21578;47.892;9.970;2023-04-24T05:49:10;8.70;96.60
35463;DHT22;21578;47.892;9.970;2023-04-24T05:53:58;8.80;96.60
35463;DHT22;21578;47.892;9.970;2023-04-24T05:58:45;8.80;96.60
35463;DHT22;21578;47.892;9.970;2023-04-24T06:03:32;8.70;96.60
35463;DHT22;21578;47.892;9.970;2023-04-24T06:08:19;8.70;96.60
35463;DHT22;21578;47.892;9.970;2023-04-24T06:13:08;8.60;96.60
35463;DHT22;21578;47.892;9.970;2023-04-24T06:17:55;8.60;96.60
35463;DHT22;21578;47.892;9.970;2023-04-24T06:22:42;8.60;96.60
35463;DHT22;21578;47.892;9.970;2023-04-24T06:27:29;8.50;96.60
35463;DHT22;21578;47.892;9.970;2023-04-24T06:32:17;8.40;96.60
35463;DHT22;21578;47.892;9.970;2023-04-24T06:37:04;8.40;96.60
35463;DHT22;21578;47.892;9.970;2023-04-24T06:41:50;8.30;96.60
35463;DHT22;21578;47.892;9.970;2023-04-24T06:46:37;8.20;96.60
35463;DHT22;21578;47.892;9.970;2023-04-24T06:51:26;8.20;96.60
35463;DHT22;21578;47.892;9.970;2023-04-24T06:56:13;8.30;96.60
35463;DHT22;21578;47.892;9.970;2023-04-24T07:01:00;8.40;96.60
35463;DHT22;21578;47.892;9.970;2023-04-24T07:05:47;8.40;96.60
35463;DHT22;21578;47.892;9.970;2023-04-24T07:10:36;8.50;96.60
35463;DHT22;21578;47.892;9.970;2023-04-24T07:15:23;8.60;96.60
35463;DHT22;21578;47.892;9.970;2023-04-24T07:20:10;8.60;96.60
35463;DHT22;21578;47.892;9.970;2023-04-24T07:24:59;8.60;96.60
35463;DHT22;21578;47.892;9.970;2023-04-24T07:29:48;8.70;96.60
35463;DHT22;21578;47.892;9.970;2023-04-24T07:34:35;8.70;96.60
35463;DHT22;21578;47.892;9.970;2023-04-24T07:39:22;8.60;96.60
35463;DHT22;21578;47.892;9.970;2023-04-24T07:44:09;8.80;96.60
35463;DHT22;21578;47.892;9.970;2023-04-24T07:48:58;8.90;96.60
35463;DHT22;21578;47.892;9.970;2023-04-24T07:53:46;9.10;96.60
35463;DHT22;21578;47.892;9.970;2023-04-24T07:58:33;9.10;96.60
35463;DHT22;21578;47.892;9.970;2023-04-24T08:03:20;9.00;96.60
35463;DHT22;21578;47.892;9.970;2023-04-24T08:08:08;9.00;96.60
35463;DHT22;21578;47.892;9.970;2023-04-24T08:12:55;9.20;96.60
35463;DHT22;21578;47.892;9.970;2023-04-24T08:17:42;9.20;96.60
35463;DHT22;21578;47.892;9.970;2023-04-24T08:22:29;9.30;96.60
35463;DHT22;21578;47.892;9.970;2023-04-24T08:27:17;9.40;96.60
35463;DHT22;21578;47.892;9.970;2023-04-24T08:32:04;9.50;96.60
35463;DHT22;21578;47.892;9.970;2023-04-24T08:36:52;9.60;96.60
35463;DHT22;21578;47.892;9.970;2023-04-24T08:41:41;9.70;96.60
35463;DHT22;21578;47.892;9.970;2023-04-24T08:46:33;9.90;96.60
35463;DHT22;21578;47.892;9.970;2023-04-24T08:51:20;10.00;96.60
35463;DHT22;21578;47.892;9.970;2023-04-24T08:56:07;9.80;96.60
35463;DHT22;21578;47.892;9.970;2023-04-24T09:00:55;9.70;96.60
35463;DHT22;21578;47.892;9.970;2023-04-24T09:05:44;9.90;96.60
35463;DHT22;21578;47.892;9.970;2023-04-24T09:10:34;10.00;96.60
35463;DHT22;21578;47.892;9.970;2023-04-24T09:15:21;10.00;96.60
35463;DHT22;21578;47.892;9.970;2023-04-24T09:20:09;10.10;96.60
35463;DHT22;21578;47.892;9.970;2023-04-24T09:25:02;10.30;96.60
35463;DHT22;21578;47.892;9.970;2023-04-24T09:29:56;9.80;96.60
35463;DHT22;21578;47.892;9.970;2023-04-24T09:34:47;9.30;96.60
35463;DHT22;21578;47.892;9.970;2023-04-24T09:39:34;9.30;96.60
35463;DHT22;21578;47.892;9.970;2023-04-24T09:44:24;9.70;96.60
35463;DHT22;21578;47.892;9.970;2023-04-24T09:49:13;9.90;96.60
35463;DHT22;21578;47.892;9.970;2023-04-24T09:54:01;10.00;96.60
35463;DHT22;21578;47.892;9.970;2023-04-24T09:58:47;10.10;96.60
35463;DHT22;21578;47.892;9.970;2023-04-24T10:03:36;10.30;96.60
35463;DHT22;21578;47.892;9.970;2023-04-24T10:08:23;10.40;96.60
35463;DHT22;21578;47.892;9.970;2023-04-24T10:13:12;10.30;96.60
35463;DHT22;21578;47.892;9.970;2023-04-24T10:17:59;10.30;96.00
35463;DHT22;21578;47.892;9.970;2023-04-24T10:22:50;10.60;96.60
35463;DHT22;21578;47.892;9.970;2023-04-24T10:27:38;10.70;96.60
35463;DHT22;21578;47.892;9.970;2023-04-24T10:32:26;10.60;93.60
35463;DHT22;21578;47.892;9.970;2023-04-24T10:37:13;10.40;91.00
35463;DHT22;21578;47.892;9.970;2023-04-24T10:42:01;10.20;95.60
35463;DHT22;21578;47.892;9.970;2023-04-24T10:46:53;10.00;96.60
35463;DHT22;21578;47.892;9.970;2023-04-24T10:51:48;9.60;96.60
35463;DHT22;21578;47.892;9.970;2023-04-24T10:56:35;9.30;96.60
35463;DHT22;21578;47.892;9.970;2023-04-24T11:01:29;9.40;96.60
35463;DHT22;21578;47.892;9.970;2023-04-24T11:06:16;9.60;96.60
35463;DHT22;21578;47.892;9.970;2023-04-24T11:11:16;9.80;96.60
35463;DHT22;21578;47.892;9.970;2023-04-24T11:16:13;10.10;96.60
35463;DHT22;21578;47.892;9.970;2023-04-24T11:21:10;10.40;90.90
35463;DHT22;21578;47.892;9.970;2023-04-24T11:26:10;10.50;95.10
35463;DHT22;21578;47.892;9.970;2023-04-24T11:30:57;10.90;92.40
35463;DHT22;21578;47.892;9.970;2023-04-24T11:35:44;11.10;89.20
35463;DHT22;21578;47.892;9.970;2023-04-24T11:40:32;11.50;85.20
35463;DHT22;21578;47.892;9.970;2023-04-24T11:45:22;11.60;81.90
35463;DHT22;21578;47.892;9.970;2023-04-24T11:50:12;11.20;84.20
35463;DHT22;21578;47.892;9.970;2023-04-24T11:54:59;11.20;84.60
35463;DHT22;21578;47.892;9.970;2023-04-24T11:59:48;11.30;84.30
35463;DHT22;21578;47.892;9.970;2023-04-24T12:04:40;11.50;81.50
35463;DHT22;21578;47.892;9.970;2023-04-24T12:09:27;12.00;83.00
35463;DHT22;21578;47.892;9.970;2023-04-24T12:14:14;12.20;80.60
35463;DHT22;21578;47.892;9.970;2023-04-24T12:19:02;11.90;77.50
35463;DHT22;21578;47.892;9.970;2023-04-24T12:23:54;11.50;79.60
35463;DHT22;21578;47.892;9.970;2023-04-24T12:28:41;11.40;82.10
35463;DHT22;21578;47.892;9.970;2023-04-24T12:33:31;11.40;80.50
35463;DHT22;21578;47.892;9.970;2023-04-24T12:38:22;11.50;78.80
35463;DHT22;21578;47.892;9.970;2023-04-24T12:43:14;12.00;76.70
35463;DHT22;21578;47.892;9.970;2023-04-24T12:48:01;12.30;73.80
35463;DHT22;21578;47.892;9.970;2023-04-24T12:52:48;12.30;74.60
35463;DHT22;21578;47.892;9.970;2023-04-24T12:57:37;12.00;78.00
35463;DHT22;21578;47.892;9.970;2023-04-24T13:02:25;11.80;77.80
35463;DHT22;21578;47.892;9.970;2023-04-24T13:07:12;12.20;74.50
35463;DHT22;21578;47.892;9.970;2023-04-24T13:11:59;12.20;70.30
35463;DHT22;21578;47.892;9.970;2023-04-24T13:16:47;12.30;72.00
35463;DHT22;21578;47.892;9.970;2023-04-24T13:21:34;12.40;72.10
35463;DHT22;21578;47.892;9.970;2023-04-24T13:26:21;12.00;71.00
35463;DHT22;21578;47.892;9.970;2023-04-24T13:31:08;11.60;75.40
35463;DHT22;21578;47.892;9.970;2023-04-24T13:35:57;11.20;76.30
35463;DHT22;21578;47.892;9.970;2023-04-24T13:40:44;11.00;77.90
35463;DHT22;21578;47.892;9.970;2023-04-24T13:45:31;10.90;77.70
35463;DHT22;21578;47.892;9.970;2023-04-24T13:50:18;11.10;78.30
35463;DHT22;21578;47.892;9.970;2023-04-24T13:55:07;11.30;76.90
35463;DHT22;21578;47.892;9.970;2023-04-24T13:59:54;11.10;77.50
35463;DHT22;21578;47.892;9.970;2023-04-24T14:04:43;11.10;77.50
35463;DHT22;21578;47.892;9.970;2023-04-24T14:09:30;10.80;77.40
35463;DHT22;21578;47.892;9.970;2023-04-24T14:14:19;10.80;78.60
35463;DHT22;21578;47.892;9.970;2023-04-24T14:19:06;11.10;79.80
35463;DHT22;21578;47.892;9.970;2023-04-24T14:23:52;11.40;78.20
35463;DHT22;21578;47.892;9.970;2023-04-24T14:28:39;11.70;76.90
35463;DHT22;21578;47.892;9.970;2023-04-24T14:33:28;11.70;77.70
35463;DHT22;21578;47.892;9.970;2023-04-24T14:38:14;11.70;76.90
35463;DHT22;21578;47.892;9.970;2023-04-24T14:43:02;11.70;75.80
35463;DHT22;21578;47.892;9.970;2023-04-24T14:47:49;11.30;76.80
35463;DHT22;21578;47.892;9.970;2023-04-24T14:52:37;11.00;77.70
35463;DHT22;21578;47.892;9.970;2023-04-24T14:57:24;10.60;80.60
35463;DHT22;21578;47.892;9.970;2023-04-24T15:02:11;10.40;82.40
35463;DHT22;21578;47.892;9.970;2023-04-24T15:06:58;10.60;82.90
35463;DHT22;21578;47.892;9.970;2023-04-24T15:11:47;10.90;82.20
35463;DHT22;21578;47.892;9.970;2023-04-24T15:16:34;11.00;78.90
35463;DHT22;21578;47.892;9.970;2023-04-24T15:21:21;10.90;78.00
35463;DHT22;21578;47.892;9.970;2023-04-24T15:26:08;10.80;80.80
35463;DHT22;21578;47.892;9.970;2023-04-24T15:30:58;10.80;79.80
35463;DHT22;21578;47.892;9.970;2023-04-24T15:35:45;10.90;79.80
35463;DHT22;21578;47.892;9.970;2023-04-24T15:40:34;10.80;79.90
35463;DHT22;21578;47.892;9.970;2023-04-24T15:45:22;10.80;80.40
35463;DHT22;21578;47.892;9.970;2023-04-24T15:50:10;10.60;79.50
35463;DHT22;21578;47.892;9.970;2023-04-24T15:54:57;10.40;83.30
35463;DHT22;21578;47.892;9.970;2023-04-24T15:59:44;10.70;85.80
35463;DHT22;21578;47.892;9.970;2023-04-24T16:04:31;10.90;83.20
35463;DHT22;21578;47.892;9.970;2023-04-24T16:09:21;10.90;82.10
35463;DHT22;21578;47.892;9.970;2023-04-24T16:14:08;11.00;82.70
35463;DHT22;21578;47.892;9.970;2023-04-24T16:18:55;11.10;79.40
35463;DHT22;21578;47.892;9.970;2023-04-24T16:23:41;11.10;80.00
35463;DHT22;21578;47.892;9.970;2023-04-24T16:28:30;11.00;80.10
35463;DHT22;21578;47.892;9.970;2023-04-24T16:33:17;11.00;81.30
35463;DHT22;21578;47.892;9.970;2023-04-24T16:38:04;11.00;81.50
35463;DHT22;21578;47.892;9.970;2023-04-24T16:42:50;11.20;81.10
35463;DHT22;21578;47.892;9.970;2023-04-24T16:47:40;11.20;82.40
35463;DHT22;21578;47.892;9.970;2023-04-24T16:52:27;11.50;82.30
35463;DHT22;21578;47.892;9.970;2023-04-24T16:57:14;11.80;82.00
35463;DHT22;21578;47.892;9.970;2023-04-24T17:02:02;12.00;79.40
35463;DHT22;21578;47.892;9.970;2023-04-24T17:06:50;12.00;79.30
35463;DHT22;21578;47.892;9.970;2023-04-24T17:11:37;11.70;79.60
35463;DHT22;21578;47.892;9.970;2023-04-24T17:16:24;11.20;81.30
35463;DHT22;21578;47.892;9.970;2023-04-24T17:21:11;10.80;82.60
35463;DHT22;21578;47.892;9.970;2023-04-24T17:25:59;10.60;83.60
35463;DHT22;21578;47.892;9.970;2023-04-24T17:30:46;10.50;84.40
35463;DHT22;21578;47.892;9.970;2023-04-24T17:35:33;10.40;85.10
35463;DHT22;21578;47.892;9.970;2023-04-24T17:40:20;10.30;85.40
35463;DHT22;21578;47.892;9.970;2023-04-24T17:45:09;10.20;85.90
35463;DHT22;21578;47.892;9.970;2023-04-24T17:49:56;10.20;85.80
35463;DHT22;21578;47.892;9.970;2023-04-24T17:54:43;10.10;86.10
35463;DHT22;21578;47.892;9.970;2023-04-24T17:59:30;9.90;87.70
35463;DHT22;21578;47.892;9.970;2023-04-24T18:04:18;9.90;88.00
35463;DHT22;21578;47.892;9.970;2023-04-24T18:09:05;10.00;87.50
35463;DHT22;21578;47.892;9.970;2023-04-24T18:13:54;9.90;89.30
35463;DHT22;21578;47.892;9.970;2023-04-24T18:18:41;9.80;90.80
35463;DHT22;21578;47.892;9.970;2023-04-24T18:23:29;9.80;90.90
35463;DHT22;21578;47.892;9.970;2023-04-24T18:28:16;9.70;91.20
35463;DHT22;21578;47.892;9.970;2023-04-24T18:33:03;9.60;91.40
35463;DHT22;21578;47.892;9.970;2023-04-24T18:37:51;9.60;91.00
35463;DHT22;21578;47.892;9.970;2023-04-24T18:42:39;9.50;91.00
35463;DHT22;21578;47.892;9.970;2023-04-24T18:47:26;9.40;91.70
35463;DHT22;21578;47.892;9.970;2023-04-24T18:52:13;9.40;91.40
35463;DHT22;21578;47.892;9.970;2023-04-24T18:57:00;9.30;91.30
35463;DHT22;21578;47.892;9.970;2023-04-24T19:01:49;9.20;91.30
35463;DHT22;21578;47.892;9.970;2023-04-24T19:06:36;9.10;91.50
35463;DHT22;21578;47.892;9.970;2023-04-24T19:11:23;9.00;91.80
35463;DHT22;21578;47.892;9.970;2023-04-24T19:16:10;8.90;92.30
35463;DHT22;21578;47.892;9.970;2023-04-24T19:20:58;8.90;92.60
35463;DHT22;21578;47.892;9.970;2023-04-24T19:25:45;8.90;93.50
35463;DHT22;21578;47.892;9.970;2023-04-24T19:30:32;8.90;94.10
35463;DHT22;21578;47.892;9.970;2023-04-24T19:35:19;8.80;93.60
35463;DHT22;21578;47.892;9.970;2023-04-24T19:40:08;8.70;94.10
35463;DHT22;21578;47.892;9.970;2023-04-24T19:44:57;8.60;94.00
35463;DHT22;21578;47.892;9.970;2023-04-24T19:49:44;8.50;94.70
35463;DHT22;21578;47.892;9.970;2023-04-24T19:54:31;8.50;95.40
35463;DHT22;21578;47.892;9.970;2023-04-24T19:59:19;8.40;95.80
35463;DHT22;21578;47.892;9.970;2023-04-24T20:04:06;8.30;96.30
35463;DHT22;21578;47.892;9.970;2023-04-24T20:08:59;8.30;96.60
35463;DHT22;21578;47.892;9.970;2023-04-24T20:13:46;8.30;96.60
35463;DHT22;21578;47.892;9.970;2023-04-24T20:18:34;8.30;96.60
35463;DHT22;21578;47.892;9.970;2023-04-24T20:23:21;8.20;96.60
35463;DHT22;21578;47.892;9.970;2023-04-24T20:28:08;8.20;96.60
35463;DHT22;21578;47.892;9.970;2023-04-24T20:32:55;8.20;96.60
35463;DHT22;21578;47.892;9.970;2023-04-24T20:37:43;8.20;96.60
35463;DHT22;21578;47.892;9.970;2023-04-24T20:42:30;8.10;96.60
35463;DHT22;21578;47.892;9.970;2023-04-24T20:47:17;8.10;96.60
35463;DHT22;21578;47.892;9.970;2023-04-24T20:52:04;8.10;96.60
35463;DHT22;21578;47.892;9.970;2023-04-24T20:56:52;8.20;96.60
35463;DHT22;21578;47.892;9.970;2023-04-24T21:01:39;8.10;96.60
35463;DHT22;21578;47.892;9.970;2023-04-24T21:06:28;8.10;96.60
35463;DHT22;21578;47.892;9.970;2023-04-24T21:11:16;8.20;96.60
35463;DHT22;21578;47.892;9.970;2023-04-24T21:16:04;8.20;96.60
35463;DHT22;21578;47.892;9.970;2023-04-24T21:20:51;8.10;96.60
35463;DHT22;21578;47.892;9.970;2023-04-24T21:25:39;8.10;96.60
35463;DHT22;21578;47.892;9.970;2023-04-24T21:30:25;8.10;96.60
35463;DHT22;21578;47.892;9.970;2023-04-24T21:35:14;8.10;96.60
35463;DHT22;21578;47.892;9.970;2023-04-24T21:40:01;8.00;96.60
35463;DHT22;21578;47.892;9.970;2023-04-24T21:44:49;8.00;96.60
35463;DHT22;21578;47.892;9.970;2023-04-24T21:49:36;8.00;96.60
35463;DHT22;21578;47.892;9.970;2023-04-24T21:54:24;8.00;96.60
35463;DHT22;21578;47.892;9.970;2023-04-24T21:59:11;8.00;96.60
35463;DHT22;21578;47.892;9.970;2023-04-24T22:03:58;7.90;96.60
35463;DHT22;21578;47.892;9.970;2023-04-24T22:08:47;7.90;96.60
35463;DHT22;21578;47.892;9.970;2023-04-24T22:13:35;7.90;96.60
35463;DHT22;21578;47.892;9.970;2023-04-24T22:18:22;7.90;96.60
35463;DHT22;21578;47.892;9.970;2023-04-24T22:23:10;7.90;96.60
35463;DHT22;21578;47.892;9.970;2023-04-24T22:27:57;7.90;96.60
35463;DHT22;21578;47.892;9.970;2023-04-24T22:32:45;7.90;96.60
35463;DHT22;21578;47.892;9.970;2023-04-24T22:37:33;7.80;96.60
35463;DHT22;21578;47.892;9.970;2023-04-24T22:42:20;7.80;96.60
35463;DHT22;21578;47.892;9.970;2023-04-24T22:47:07;7.80;96.60
35463;DHT22;21578;47.892;9.970;2023-04-24T22:51:55;7.80;96.60
35463;DHT22;21578;47.892;9.970;2023-04-24T22:56:42;7.80;96.60
35463;DHT22;21578;47.892;9.970;2023-04-24T23:01:29;7.80;96.60
35463;DHT22;21578;47.892;9.970;2023-04-24T23:06:16;7.80;96.60
35463;DHT22;21578;47.892;9.970;2023-04-24T23:11:04;7.80;96.60
35463;DHT22;21578;47.892;9.970;2023-04-24T23:15:51;7.70;96.60
35463;DHT22;21578;47.892;9.970;2023-04-24T23:20:38;7.70;96.60
35463;DHT22;21578;47.892;9.970;2023-04-24T23:25:26;7.80;96.60
35463;DHT22;21578;47.892;9.970;2023-04-24T23:30:14;7.80;96.60
35463;DHT22;21578;47.892;9.970;2023-04-24T23:35:01;7.70;96.60
35463;DHT22;21578;47.892;9.970;2023-04-24T23:39:48;7.70;96.60
35463;DHT22;21578;47.892;9.970;2023-04-24T23:44:35;7.60;96.60
35463;DHT22;21578;47.892;9.970;2023-04-24T23:49:23;7.60;96.60
35463;DHT22;21578;47.892;9.970;2023-04-24T23:54:10;7.60;96.60
35463;DHT22;21578;47.892;9.970;2023-04-24T23:58:57;7.60;96.60
